createdAt,value
2022-08-03T00:00:26.506Z,2.78
2022-08-03T00:02:53.740Z,2.88
2022-08-03T00:05:20.964Z,2.75
2022-08-03T00:07:48.439Z,3.63
2022-08-03T00:10:16.959Z,3.25
2022-08-03T00:12:45.122Z,3.00
2022-08-03T00:15:16.450Z,2.72
2022-08-03T00:17:52.502Z,3.22
2022-08-03T00:20:20.325Z,3.00
2022-08-03T00:22:47.119Z,3.17
2022-08-03T00:25:14.003Z,3.17
2022-08-03T00:27:40.821Z,3.20
2022-08-03T00:30:10.458Z,3.28
2022-08-03T00:32:38.866Z,3.53
2022-08-03T00:35:18.236Z,3.15
2022-08-03T00:38:00.014Z,2.70
2022-08-03T00:40:26.954Z,2.80
2022-08-03T00:42:55.832Z,2.70
2022-08-03T00:45:25.752Z,2.95
2022-08-03T00:47:53.189Z,2.60
2022-08-03T00:50:23.079Z,3.05
2022-08-03T00:52:51.888Z,3.05
2022-08-03T00:55:19.280Z,2.80
2022-08-03T00:57:47.045Z,2.50
2022-08-03T01:00:18.054Z,2.35
2022-08-03T01:02:46.481Z,2.65
2022-08-03T01:05:13.939Z,2.88
2022-08-03T01:07:54.278Z,2.70
2022-08-03T01:10:28.657Z,2.75
2022-08-03T01:13:05.988Z,3.72
2022-08-03T01:15:46.571Z,2.83
2022-08-03T01:18:20.013Z,2.85
2022-08-03T01:20:53.551Z,3.30
2022-08-03T01:23:35.957Z,3.63
2022-08-03T01:26:28.157Z,2.72
2022-08-03T01:32:59.231Z,2.50
2022-08-03T01:34:32.768Z,2.70
2022-08-03T01:37:03.138Z,3.33
2022-08-03T01:39:33.103Z,3.47
2022-08-03T01:42:06.287Z,3.00
2022-08-03T01:44:38.489Z,3.38
2022-08-03T01:47:08.740Z,3.25
2022-08-03T01:49:40.223Z,3.05
2022-08-03T01:52:08.512Z,3.30
2022-08-03T01:54:37.916Z,2.90
2022-08-03T01:57:05.316Z,3.33
2022-08-03T01:59:36.314Z,3.40
2022-08-03T02:02:28.934Z,3.20
2022-08-03T02:04:56.917Z,3.13
2022-08-03T02:07:26.314Z,3.20
2022-08-03T02:09:55.722Z,4.40
2022-08-03T02:12:25.071Z,3.10
2022-08-03T02:14:53.910Z,3.65
2022-08-03T02:17:39.533Z,4.22
2022-08-03T02:20:11.824Z,3.65
2022-08-03T02:22:41.041Z,3.40
2022-08-03T02:25:09.279Z,3.50
2022-08-03T02:27:41.825Z,3.67
2022-08-03T02:30:12.581Z,3.70
2022-08-03T02:32:42.627Z,3.33
2022-08-03T02:35:13.562Z,3.50
2022-08-03T02:37:44.976Z,3.38
2022-08-03T02:40:19.585Z,3.03
2022-08-03T02:42:48.824Z,3.70
2022-08-03T02:45:18.450Z,3.10
2022-08-03T02:47:52.193Z,3.40
2022-08-03T02:50:24.595Z,3.55
2022-08-03T02:52:52.760Z,3.72
2022-08-03T02:55:22.138Z,3.95
2022-08-03T02:57:50.335Z,4.05
2022-08-03T03:00:19.402Z,4.03
2022-08-03T03:02:57.521Z,3.95
2022-08-03T03:05:52.213Z,4.22
2022-08-03T03:08:17.744Z,4.00
2022-08-03T03:10:46.655Z,3.40
2022-08-03T03:13:15.848Z,3.53
2022-08-03T03:18:12.033Z,3.75
2022-08-03T03:20:41.017Z,3.53
2022-08-03T03:23:09.749Z,4.25
2022-08-03T03:25:37.086Z,3.45
2022-08-03T03:28:06.403Z,3.85
2022-08-03T03:30:34.291Z,4.13
2022-08-03T03:33:01.211Z,3.47
2022-08-03T03:35:28.535Z,3.33
2022-08-03T03:37:57.178Z,3.83
2022-08-03T03:40:24.295Z,3.25
2022-08-03T03:42:51.387Z,3.40
2022-08-03T03:45:19.645Z,4.32
2022-08-03T03:47:46.693Z,4.32
2022-08-03T03:50:15.892Z,3.92
2022-08-03T03:52:42.874Z,3.38
2022-08-03T03:55:16.364Z,4.65
2022-08-03T03:57:43.362Z,3.63
2022-08-03T04:00:11.712Z,3.70
2022-08-03T04:02:39.318Z,3.30
2022-08-03T04:05:27.406Z,3.35
2022-08-03T04:08:17.793Z,3.13
2022-08-03T04:11:00.131Z,3.33
2022-08-03T04:13:31.044Z,4.13
2022-08-03T04:15:59.301Z,3.45
2022-08-03T04:18:29.769Z,3.13
2022-08-03T04:21:00.893Z,3.20
2022-08-03T04:23:29.557Z,3.75
2022-08-03T04:25:59.398Z,3.97
2022-08-03T04:28:30.386Z,3.47
2022-08-03T04:31:00.113Z,3.90
2022-08-03T04:33:30.307Z,3.58
2022-08-03T04:36:01.604Z,3.85
2022-08-03T04:38:31.901Z,3.55
2022-08-03T04:41:01.975Z,4.00
2022-08-03T04:43:31.785Z,3.45
2022-08-03T04:46:00.224Z,3.63
2022-08-03T04:48:28.112Z,4.05
2022-08-03T04:50:55.180Z,3.47
2022-08-03T04:53:22.560Z,4.40
2022-08-03T04:55:50.378Z,4.13
2022-08-03T04:58:18.627Z,3.78
2022-08-03T05:00:45.763Z,3.97
2022-08-03T05:03:20.536Z,3.75
2022-08-03T05:05:51.573Z,3.65
2022-08-03T05:08:20.328Z,3.60
2022-08-03T05:10:49.692Z,4.13
2022-08-03T05:13:18.004Z,3.50
2022-08-03T05:15:44.930Z,4.35
2022-08-03T05:18:14.091Z,3.50
2022-08-03T05:20:41.303Z,4.32
2022-08-03T05:23:08.152Z,3.95
2022-08-03T05:25:35.073Z,3.40
2022-08-03T05:28:02.064Z,4.00
2022-08-03T05:30:34.089Z,3.70
2022-08-03T05:33:02.740Z,4.07
2022-08-03T05:36:00.745Z,3.50
2022-08-03T05:41:20.182Z,4.18
2022-08-03T05:43:48.188Z,3.20
2022-08-03T05:46:16.444Z,3.90
2022-08-03T05:48:43.685Z,3.95
2022-08-03T05:51:14.092Z,3.83
2022-08-03T05:53:41.915Z,3.45
2022-08-03T05:56:14.374Z,4.30
2022-08-03T05:58:43.100Z,3.88
2022-08-03T06:01:09.970Z,3.85
2022-08-03T06:03:38.263Z,3.90
2022-08-03T06:06:05.195Z,4.50
2022-08-03T06:08:32.108Z,4.47
2022-08-03T06:10:59.012Z,4.63
2022-08-03T06:13:25.857Z,4.70
2022-08-03T06:15:52.663Z,5.00
2022-08-03T06:18:19.575Z,5.03
2022-08-03T06:20:49.500Z,4.50
2022-08-03T06:23:18.013Z,4.68
2022-08-03T06:25:45.784Z,5.05
2022-08-03T06:28:42.431Z,4.68
2022-08-03T06:31:01.362Z,4.65
2022-08-03T06:33:48.359Z,4.85
2022-08-03T06:38:43.165Z,5.40
2022-08-03T06:41:10.274Z,5.13
2022-08-03T06:43:38.103Z,4.80
2022-08-03T06:46:24.533Z,4.40
2022-08-03T06:48:53.026Z,4.80
2022-08-03T06:51:21.361Z,4.30
2022-08-03T06:54:08.228Z,4.53
2022-08-03T06:56:35.065Z,4.22
2022-08-03T06:59:01.939Z,5.40
2022-08-03T07:01:28.966Z,4.72
2022-08-03T07:03:56.443Z,4.90
2022-08-03T07:06:24.835Z,4.85
2022-08-03T07:08:54.487Z,5.00
2022-08-03T07:11:23.490Z,4.75
2022-08-03T07:13:50.394Z,3.83
2022-08-03T07:16:17.204Z,4.07
2022-08-03T07:18:44.613Z,4.55
2022-08-03T07:21:12.796Z,5.22
2022-08-03T07:23:41.220Z,4.45
2022-08-03T07:26:08.048Z,5.00
2022-08-03T07:28:35.137Z,5.18
2022-08-03T07:31:01.938Z,4.90
2022-08-03T07:33:28.834Z,4.75
2022-08-03T07:35:55.642Z,5.03
2022-08-03T07:38:22.522Z,5.28
2022-08-03T07:40:50.867Z,4.30
2022-08-03T07:43:17.842Z,4.35
2022-08-03T07:45:44.809Z,4.05
2022-08-03T07:48:12.621Z,4.57
2022-08-03T07:50:39.777Z,4.80
2022-08-03T07:53:06.678Z,4.93
2022-08-03T07:55:33.761Z,3.30
2022-08-03T07:58:09.427Z,4.03
2022-08-03T08:00:36.773Z,3.00
2022-08-03T08:03:04.865Z,3.78
2022-08-03T08:05:31.981Z,3.65
2022-08-03T08:07:59.012Z,4.35
2022-08-03T08:10:26.055Z,3.65
2022-08-03T08:12:53.508Z,3.70
2022-08-03T08:15:21.989Z,4.03
2022-08-03T08:17:50.437Z,4.13
2022-08-03T08:20:27.070Z,3.88
2022-08-03T08:22:57.132Z,3.67
2022-08-03T08:25:25.171Z,3.88
2022-08-03T08:28:29.371Z,3.30
2022-08-03T08:30:41.034Z,3.47
2022-08-03T08:33:08.684Z,3.85
2022-08-03T08:35:48.986Z,3.58
2022-08-03T08:38:15.780Z,3.65
2022-08-03T08:40:42.924Z,3.42
2022-08-03T08:43:10.026Z,3.53
2022-08-03T08:45:37.736Z,3.30
2022-08-03T08:48:08.435Z,3.63
2022-08-03T08:50:38.849Z,3.28
2022-08-03T08:53:10.724Z,3.67
2022-08-03T08:55:58.378Z,3.13
2022-08-03T08:58:29.780Z,3.28
2022-08-03T09:00:57.178Z,3.88
2022-08-03T09:03:29.658Z,3.40
2022-08-03T09:05:59.777Z,3.72
2022-08-03T09:08:26.700Z,3.75
2022-08-03T09:10:53.530Z,3.38
2022-08-03T09:13:20.409Z,3.72
2022-08-03T09:16:00.682Z,3.80
2022-08-03T09:18:32.192Z,4.18
2022-08-03T09:21:30.056Z,4.53
2022-08-03T09:24:03.928Z,4.47
2022-08-03T09:26:34.330Z,4.50
2022-08-03T09:29:05.923Z,4.32
2022-08-03T09:31:35.211Z,5.15
2022-08-03T09:34:05.534Z,5.07
2022-08-03T09:36:40.851Z,4.63
2022-08-03T09:39:11.196Z,4.50
2022-08-03T09:41:39.537Z,4.18
2022-08-03T09:44:06.671Z,4.30
2022-08-03T09:46:49.952Z,4.43
2022-08-03T09:49:18.706Z,4.22
2022-08-03T09:52:31.919Z,4.85
2022-08-03T09:54:33.126Z,4.43
2022-08-03T09:57:00.200Z,4.93
2022-08-03T09:59:28.674Z,4.88
2022-08-03T10:01:56.300Z,4.30
2022-08-03T10:04:27.660Z,5.10
2022-08-03T10:07:06.393Z,5.60
2022-08-03T10:09:33.327Z,5.28
2022-08-03T10:12:07.982Z,4.55
2022-08-03T10:14:37.818Z,5.18
2022-08-03T10:17:05.384Z,5.90
2022-08-03T10:19:35.278Z,5.72
2022-08-03T10:22:04.957Z,5.13
2022-08-03T10:24:35.425Z,5.70
2022-08-03T10:27:04.485Z,4.35
2022-08-03T10:29:37.171Z,4.85
2022-08-03T10:32:08.032Z,4.30
2022-08-03T10:34:44.418Z,4.40
2022-08-03T10:37:12.857Z,5.38
2022-08-03T10:39:53.460Z,4.93
2022-08-03T10:42:27.156Z,4.35
2022-08-03T10:45:03.305Z,5.00
2022-08-03T10:47:31.463Z,4.22
2022-08-03T10:50:01.195Z,4.30
2022-08-03T10:52:31.731Z,4.35
2022-08-03T10:55:22.023Z,3.90
2022-08-03T10:57:56.070Z,3.90
2022-08-03T11:00:27.461Z,3.90
2022-08-03T11:03:11.290Z,3.92
2022-08-03T11:05:41.921Z,4.28
2022-08-03T11:08:19.713Z,2.97
2022-08-03T11:10:46.818Z,2.80
2022-08-03T11:13:16.888Z,3.33
2022-08-03T11:15:46.675Z,3.47
2022-08-03T11:18:14.255Z,3.80
2022-08-03T11:20:47.776Z,2.72
2022-08-03T11:23:15.767Z,3.20
2022-08-03T11:26:16.143Z,2.97
2022-08-03T11:28:44.841Z,2.63
2022-08-03T11:34:17.576Z,2.53
2022-08-03T11:37:26.379Z,2.47
2022-08-03T11:39:57.039Z,2.83
2022-08-03T11:42:45.249Z,2.58
2022-08-03T11:45:12.717Z,2.72
2022-08-03T11:47:51.161Z,2.60
2022-08-03T11:50:20.093Z,2.45
2022-08-03T11:52:49.196Z,2.10
2022-08-03T11:55:22.013Z,2.72
2022-08-03T11:59:18.813Z,2.30
2022-08-03T12:00:36.668Z,1.83
2022-08-03T12:03:06.505Z,2.63
2022-08-03T12:05:42.086Z,2.55
2022-08-03T12:08:31.346Z,2.80
2022-08-03T12:11:00.435Z,2.58
2022-08-03T12:14:35.672Z,2.40
2022-08-03T12:16:24.392Z,2.85
2022-08-03T12:18:55.594Z,2.90
2022-08-03T12:21:24.764Z,3.13
2022-08-03T12:23:56.914Z,2.40
2022-08-03T12:26:23.768Z,2.92
2022-08-03T12:28:50.696Z,2.53
2022-08-03T12:31:17.712Z,2.78
2022-08-03T12:33:59.981Z,2.17
2022-08-03T12:36:29.806Z,2.55
2022-08-03T12:39:00.433Z,2.70
2022-08-03T12:41:29.680Z,2.38
2022-08-03T12:43:56.827Z,3.00
2022-08-03T12:46:29.207Z,2.22
2022-08-03T12:49:04.890Z,2.55
2022-08-03T12:51:33.707Z,2.60
2022-08-03T12:56:29.155Z,2.65
2022-08-03T12:58:56.284Z,2.42
2022-08-03T13:01:24.559Z,2.38
2022-08-03T13:03:53.847Z,2.50
2022-08-03T13:06:22.695Z,2.50
2022-08-03T13:08:51.327Z,2.78
2022-08-03T13:11:55.724Z,2.45
2022-08-03T13:14:16.692Z,2.35
2022-08-03T13:16:47.474Z,2.70
2022-08-03T13:19:15.486Z,2.47
2022-08-03T13:22:02.195Z,2.40
2022-08-03T13:24:30.447Z,2.40
2022-08-03T13:27:00.099Z,2.65
2022-08-03T13:29:26.931Z,2.67
2022-08-03T13:31:54.059Z,2.80
2022-08-03T13:34:23.465Z,2.67
2022-08-03T13:37:08.293Z,2.35
2022-08-03T13:39:59.801Z,2.53
2022-08-03T13:42:24.636Z,2.70
2022-08-03T13:44:51.491Z,2.03
2022-08-03T13:47:20.140Z,2.67
2022-08-03T13:50:00.049Z,2.15
2022-08-03T13:52:29.529Z,2.28
2022-08-03T13:54:56.708Z,1.88
2022-08-03T13:58:06.450Z,2.47
2022-08-03T14:00:12.676Z,2.20
2022-08-03T14:02:44.317Z,2.08
2022-08-03T14:05:11.369Z,2.65
2022-08-03T14:07:38.197Z,2.63
2022-08-03T14:10:05.843Z,2.33
2022-08-03T14:12:35.212Z,1.90
2022-08-03T14:15:02.064Z,2.40
2022-08-03T14:17:42.015Z,1.90
2022-08-03T14:20:36.215Z,2.00
2022-08-03T14:23:02.978Z,1.88
2022-08-03T14:25:31.338Z,2.40
2022-08-03T14:28:11.411Z,2.40
2022-08-03T14:30:38.225Z,2.00
2022-08-03T14:33:05.088Z,2.20
2022-08-03T14:35:31.977Z,2.13
2022-08-03T14:37:58.823Z,2.30
2022-08-03T14:40:25.666Z,2.58
2022-08-03T14:42:52.513Z,2.35
2022-08-03T14:45:20.795Z,2.38
2022-08-03T14:50:30.726Z,2.30
2022-08-03T14:50:41.930Z,2.47
2022-08-03T14:53:11.258Z,2.13
2022-08-03T14:55:38.966Z,2.75
2022-08-03T14:58:20.599Z,2.15
2022-08-03T15:00:50.227Z,2.33
2022-08-03T15:03:20.623Z,2.30
2022-08-03T15:05:47.775Z,2.15
2022-08-03T15:08:14.630Z,1.85
2022-08-03T15:10:44.887Z,2.15
2022-08-03T15:13:12.709Z,1.88
2022-08-03T15:15:39.727Z,2.00
2022-08-03T15:18:08.620Z,1.88
2022-08-03T15:20:44.462Z,2.53
2022-08-03T15:23:13.040Z,1.75
2022-08-03T15:26:29.396Z,2.03
2022-08-03T15:28:26.846Z,1.98
2022-08-03T15:30:53.872Z,1.90
2022-08-03T15:33:22.147Z,1.98
2022-08-03T15:35:49.942Z,2.00
2022-08-03T15:38:16.957Z,1.80
2022-08-03T15:40:43.790Z,2.25
2022-08-03T15:43:10.858Z,2.10
2022-08-03T15:45:37.758Z,1.85
2022-08-03T15:48:05.334Z,2.15
2022-08-03T15:50:33.562Z,2.00
2022-08-03T15:53:00.607Z,1.70
2022-08-03T15:55:27.930Z,1.85
2022-08-03T15:59:10.363Z,1.83
2022-08-03T16:00:42.872Z,1.95
2022-08-03T16:03:09.958Z,1.90
2022-08-03T16:05:38.509Z,1.67
2022-08-03T16:08:09.062Z,2.10
2022-08-03T16:10:39.757Z,2.30
2022-08-03T16:13:06.793Z,1.50
2022-08-03T16:15:34.003Z,1.77
2022-08-03T16:18:05.780Z,1.65
2022-08-03T16:20:35.008Z,1.50
2022-08-03T16:23:10.319Z,1.73
2022-08-03T16:25:38.663Z,1.80
2022-08-03T16:28:07.820Z,1.33
2022-08-03T16:30:40.727Z,1.70
2022-08-03T16:33:07.643Z,1.75
2022-08-03T16:35:34.577Z,1.55
2022-08-03T16:38:02.836Z,1.27
2022-08-03T16:40:32.891Z,1.58
2022-08-03T16:42:59.772Z,2.40
2022-08-03T16:45:26.675Z,1.52
2022-08-03T16:48:01.650Z,1.50
2022-08-03T16:50:32.787Z,1.80
2022-08-03T16:52:59.743Z,1.55
2022-08-03T16:55:43.217Z,1.65
2022-08-03T16:58:17.941Z,1.33
2022-08-03T17:00:51.483Z,1.50
2022-08-03T17:03:24.099Z,1.55
2022-08-03T17:05:51.332Z,1.45
2022-08-03T17:08:26.462Z,2.13
2022-08-03T17:10:55.084Z,1.33
2022-08-03T17:13:39.441Z,1.73
2022-08-03T17:16:10.524Z,2.03
2022-08-03T17:18:42.181Z,1.40
2022-08-03T17:21:16.105Z,1.63
2022-08-03T17:23:52.142Z,1.52
2022-08-03T17:26:21.963Z,1.20
2022-08-03T17:28:58.019Z,1.83
2022-08-03T17:31:31.741Z,1.80
2022-08-03T17:34:01.369Z,1.30
2022-08-03T17:39:16.605Z,1.40
2022-08-03T17:41:50.064Z,1.33
2022-08-03T17:44:35.234Z,1.55
2022-08-03T17:47:06.639Z,1.52
2022-08-03T17:49:40.036Z,1.92
2022-08-03T17:52:17.556Z,1.60
2022-08-03T17:55:55.496Z,1.50
2022-08-03T17:58:02.721Z,1.60
2022-08-03T18:00:52.137Z,1.40
2022-08-03T18:03:24.972Z,1.58
2022-08-03T18:06:11.859Z,1.67
2022-08-03T18:08:54.699Z,1.27
2022-08-03T18:11:35.379Z,1.70
2022-08-03T18:14:16.463Z,1.50
2022-08-03T18:16:50.109Z,1.27
2022-08-03T18:19:17.757Z,1.40
2022-08-03T18:22:03.001Z,1.58
2022-08-03T18:24:30.801Z,1.92
2022-08-03T18:26:59.441Z,1.98
2022-08-03T18:29:27.838Z,1.75
2022-08-03T18:32:03.069Z,1.35
2022-08-03T18:34:34.607Z,1.55
2022-08-03T18:37:07.507Z,1.40
2022-08-03T18:39:52.787Z,1.35
2022-08-03T18:42:25.904Z,1.73
2022-08-03T18:44:56.181Z,1.70
2022-08-03T18:47:52.442Z,1.63
2022-08-03T18:50:28.473Z,1.60
2022-08-03T18:53:16.195Z,1.90
2022-08-03T18:56:01.618Z,1.92
2022-08-03T18:58:35.467Z,1.75
2022-08-03T19:01:47.184Z,1.95
2022-08-03T19:04:09.038Z,1.70
2022-08-03T19:06:42.148Z,2.00
2022-08-03T19:09:17.398Z,1.60
2022-08-03T19:12:13.955Z,1.50
2022-08-03T19:14:41.568Z,1.88
2022-08-03T19:17:11.385Z,1.90
2022-08-03T19:22:16.374Z,1.77
2022-08-03T19:24:45.677Z,1.88
2022-08-03T19:30:00.440Z,1.73
2022-08-03T19:32:30.471Z,2.00
2022-08-03T19:35:00.651Z,1.92
2022-08-03T19:37:38.068Z,2.08
2022-08-03T19:40:10.943Z,2.15
2022-08-03T19:42:44.678Z,1.88
2022-08-03T19:45:20.947Z,2.15
2022-08-03T19:47:52.188Z,2.40
2022-08-03T19:50:20.890Z,2.25
2022-08-03T19:52:51.453Z,2.10
2022-08-03T19:55:18.797Z,2.20
2022-08-03T19:57:49.029Z,2.17
2022-08-03T20:00:19.683Z,2.20
2022-08-03T20:02:47.605Z,2.47
2022-08-03T20:05:20.086Z,2.42
2022-08-03T20:10:16.993Z,3.10
2022-08-03T20:12:44.834Z,2.58
2022-08-03T20:15:12.183Z,2.30
2022-08-03T20:17:54.498Z,2.58
2022-08-03T20:20:27.752Z,2.50
2022-08-03T20:22:57.627Z,2.15
2022-08-03T20:30:56.942Z,2.00
2022-08-03T20:33:27.986Z,2.75
2022-08-03T20:36:12.246Z,2.47
2022-08-03T20:38:46.879Z,2.60
2022-08-03T20:41:14.465Z,2.35
2022-08-03T20:43:42.027Z,2.35
2022-08-03T20:46:33.772Z,2.80
2022-08-03T20:48:58.951Z,2.40
2022-08-03T20:51:50.603Z,2.22
2022-08-03T20:54:22.991Z,2.47
2022-08-03T20:56:57.793Z,2.45
2022-08-03T20:59:29.890Z,2.75
2022-08-03T21:02:00.564Z,2.60
2022-08-03T21:04:28.766Z,2.00
2022-08-03T21:07:02.522Z,2.40
2022-08-03T21:09:42.289Z,2.50
2022-08-03T21:12:18.958Z,2.55
2022-08-03T21:13:06.786Z,2.85
2022-08-03T21:17:39.202Z,2.60
2022-08-03T21:20:09.184Z,2.70
2022-08-03T21:22:39.243Z,2.75
2022-08-03T21:25:09.378Z,2.67
2022-08-03T21:27:37.467Z,2.55
2022-08-03T21:30:07.933Z,2.28
2022-08-03T21:32:36.519Z,2.70
2022-08-03T21:35:04.081Z,2.35
2022-08-03T21:37:30.895Z,2.63
2022-08-03T21:39:59.151Z,2.80
2022-08-03T21:42:26.130Z,2.53
2022-08-03T21:44:53.683Z,2.70
2022-08-03T21:47:22.964Z,2.40
2022-08-03T21:50:06.590Z,2.95
2022-08-03T21:52:41.256Z,2.80
2022-08-03T21:55:20.293Z,2.95
2022-08-03T21:57:53.514Z,3.22
2022-08-03T22:00:23.078Z,3.03
2022-08-03T22:02:54.771Z,3.05
2022-08-03T22:05:28.156Z,3.40
2022-08-03T22:08:09.491Z,3.80
2022-08-03T22:10:38.247Z,3.10
2022-08-03T22:13:05.098Z,3.08
2022-08-03T22:15:32.912Z,3.08
2022-08-03T22:18:03.674Z,3.22
2022-08-03T22:20:31.086Z,3.10
2022-08-03T22:23:01.983Z,3.28
2022-08-03T22:25:30.988Z,3.00
2022-08-03T22:28:01.833Z,3.30
2022-08-03T22:30:29.309Z,3.03
2022-08-03T22:32:57.700Z,2.97
2022-08-03T22:35:26.719Z,3.08
2022-08-03T22:37:55.406Z,3.10
2022-08-03T22:40:22.498Z,3.50
2022-08-03T22:42:51.344Z,2.85
2022-08-03T22:46:07.189Z,2.92
2022-08-03T22:48:08.590Z,2.97
2022-08-03T22:50:36.000Z,3.13
2022-08-03T22:53:03.437Z,2.75
2022-08-03T22:55:31.068Z,3.10
2022-08-03T22:57:57.898Z,3.00
2022-08-03T23:00:26.256Z,3.05
2022-08-03T23:02:56.913Z,3.33
2022-08-03T23:06:01.070Z,3.08
2022-08-03T23:08:15.270Z,3.60
2022-08-03T23:10:46.862Z,2.95
2022-08-03T23:13:16.485Z,3.40
2022-08-03T23:15:50.973Z,3.33
2022-08-03T23:18:21.452Z,2.97
2022-08-03T23:20:51.702Z,3.53
2022-08-03T23:23:19.921Z,3.00
2022-08-03T23:25:49.520Z,3.50
2022-08-03T23:28:17.400Z,3.00
2022-08-03T23:30:47.489Z,3.50
2022-08-03T23:33:16.461Z,3.42
2022-08-03T23:36:28.145Z,3.20
2022-08-03T23:38:46.025Z,3.35
2022-08-03T23:41:14.922Z,3.67
2022-08-03T23:43:52.127Z,4.22
2022-08-03T23:46:24.003Z,3.95
2022-08-03T23:48:51.470Z,3.67
2022-08-03T23:51:33.348Z,3.65
2022-08-03T23:54:03.877Z,3.85
2022-08-03T23:56:37.450Z,4.38
2022-08-03T23:59:12.978Z,4.13
